Terminal Aerodrome Forecast
Issued by NWS Sioux Falls, SD

Home | Current Version | Previous Version | Text Only | Print | Product List | Glossary On
Versions: 1 2 3 4 5 6 7 8 9 10 11 12 13 14 15 16 17 18 19 20
000
FTUS43 KFSD 300535
TAFFSD
TAF
KFSD 300535Z 3006/0106 30004KT P6SM SCT250
     FM300900 36004KT 6SM FU BKN100
     FM301500 08005KT P6SM BKN120
     FM010000 11005KT P6SM SCT050 BKN100=

USA.gov is the U.S. government's official web portal to all federal, state and local government web resources and services.